sensor_id;sensor_type;location;lat;lon;timestamp;pressure;altitude;pressure_sealevel;temperature;humidity
11343;BME280;5726;42.160;24.746;2023-03-14T00:00:35;100016.72;;;8.31;48.07
11343;BME280;5726;42.160;24.746;2023-03-14T00:03:01;100012.72;;;8.34;48.37
11343;BME280;5726;42.160;24.746;2023-03-14T00:05:26;100016.72;;;8.31;48.36
11343;BME280;5726;42.160;24.746;2023-03-14T00:07:52;100007.16;;;7.99;49.34
11343;BME280;5726;42.160;24.746;2023-03-14T00:10:17;100010.25;;;8.17;48.98
11343;BME280;5726;42.160;24.746;2023-03-14T00:12:43;100008.69;;;8.26;48.89
11343;BME280;5726;42.160;24.746;2023-03-14T00:15:10;100009.78;;;8.40;48.29
11343;BME280;5726;42.160;24.746;2023-03-14T00:17:36;100009.78;;;8.35;48.38
11343;BME280;5726;42.160;24.746;2023-03-14T00:20:03;100002.63;;;8.51;48.06
11343;BME280;5726;42.160;24.746;2023-03-14T00:22:40;99991.38;;;8.44;48.04
11343;BME280;5726;42.160;24.746;2023-03-14T00:25:07;99989.41;;;8.24;48.44
11343;BME280;5726;42.160;24.746;2023-03-14T00:27:33;99987.28;;;8.21;48.55
11343;BME280;5726;42.160;24.746;2023-03-14T00:29:59;99988.31;;;8.15;48.89
11343;BME280;5726;42.160;24.746;2023-03-14T00:32:24;99982.44;;;8.13;48.84
11343;BME280;5726;42.160;24.746;2023-03-14T00:34:50;99978.63;;;8.05;49.26
11343;BME280;5726;42.160;24.746;2023-03-14T00:37:15;99978.13;;;8.07;49.58
11343;BME280;5726;42.160;24.746;2023-03-14T00:39:41;99970.91;;;7.52;51.44
11343;BME280;5726;42.160;24.746;2023-03-14T00:42:06;99976.75;;;7.54;51.67
11343;BME280;5726;42.160;24.746;2023-03-14T00:44:32;99971.88;;;7.05;53.26
11343;BME280;5726;42.160;24.746;2023-03-14T00:46:58;99977.59;;;6.61;55.31
11343;BME280;5726;42.160;24.746;2023-03-14T00:49:23;99965.69;;;7.00;53.95
11343;BME280;5726;42.160;24.746;2023-03-14T00:51:49;99964.66;;;7.06;53.30
11343;BME280;5726;42.160;24.746;2023-03-14T00:54:14;99964.41;;;7.07;53.32
11343;BME280;5726;42.160;24.746;2023-03-14T00:56:40;99957.88;;;6.88;53.75
11343;BME280;5726;42.160;24.746;2023-03-14T00:59:05;99959.28;;;6.96;53.48
11343;BME280;5726;42.160;24.746;2023-03-14T01:01:30;99952.22;;;6.85;53.75
11343;BME280;5726;42.160;24.746;2023-03-14T01:03:56;99946.19;;;6.94;53.05
11343;BME280;5726;42.160;24.746;2023-03-14T01:06:25;99943.81;;;6.98;53.30
11343;BME280;5726;42.160;24.746;2023-03-14T01:08:51;99941.00;;;7.09;52.65
11343;BME280;5726;42.160;24.746;2023-03-14T01:11:23;99935.44;;;7.15;52.26
11343;BME280;5726;42.160;24.746;2023-03-14T01:13:48;99930.38;;;7.19;52.33
11343;BME280;5726;42.160;24.746;2023-03-14T01:16:14;99926.44;;;7.26;52.33
11343;BME280;5726;42.160;24.746;2023-03-14T01:18:42;99925.91;;;7.29;52.14
11343;BME280;5726;42.160;24.746;2023-03-14T01:23:44;99919.63;;;7.50;51.28
11343;BME280;5726;42.160;24.746;2023-03-14T01:26:11;99920.22;;;7.57;51.37
11343;BME280;5726;42.160;24.746;2023-03-14T01:28:36;99922.09;;;7.57;51.18
11343;BME280;5726;42.160;24.746;2023-03-14T01:31:06;99923.50;;;7.74;50.77
11343;BME280;5726;42.160;24.746;2023-03-14T01:33:33;99919.84;;;7.85;50.33
11343;BME280;5726;42.160;24.746;2023-03-14T01:35:58;99922.47;;;7.80;50.35
11343;BME280;5726;42.160;24.746;2023-03-14T01:38:24;99925.88;;;7.70;50.91
11343;BME280;5726;42.160;24.746;2023-03-14T01:40:50;99920.47;;;7.56;51.25
11343;BME280;5726;42.160;24.746;2023-03-14T01:43:17;99913.22;;;7.46;51.39
11343;BME280;5726;42.160;24.746;2023-03-14T01:46:57;99912.50;;;7.60;51.30
11343;BME280;5726;42.160;24.746;2023-03-14T01:49:14;99914.91;;;7.62;51.35
11343;BME280;5726;42.160;24.746;2023-03-14T01:51:46;99913.13;;;7.77;51.04
11343;BME280;5726;42.160;24.746;2023-03-14T01:54:18;99911.75;;;7.70;50.69
11343;BME280;5726;42.160;24.746;2023-03-14T01:56:50;99902.41;;;7.72;50.61
11343;BME280;5726;42.160;24.746;2023-03-14T01:59:18;99899.94;;;7.56;50.85
11343;BME280;5726;42.160;24.746;2023-03-14T02:01:46;99904.94;;;7.43;50.92
11343;BME280;5726;42.160;24.746;2023-03-14T02:04:13;99891.63;;;7.02;52.40
11343;BME280;5726;42.160;24.746;2023-03-14T02:06:55;99897.41;;;6.94;52.94
11343;BME280;5726;42.160;24.746;2023-03-14T02:09:23;99893.28;;;7.13;53.12
11343;BME280;5726;42.160;24.746;2023-03-14T02:11:49;99896.44;;;7.05;53.23
11343;BME280;5726;42.160;24.746;2023-03-14T02:14:31;99894.41;;;7.21;53.55
11343;BME280;5726;42.160;24.746;2023-03-14T02:16:57;99898.72;;;7.32;52.76
11343;BME280;5726;42.160;24.746;2023-03-14T02:19:47;99891.81;;;7.31;52.96
11343;BME280;5726;42.160;24.746;2023-03-14T02:22:16;99885.44;;;7.37;52.45
11343;BME280;5726;42.160;24.746;2023-03-14T02:25:14;99884.28;;;7.23;53.00
11343;BME280;5726;42.160;24.746;2023-03-14T02:27:42;99892.13;;;6.99;53.37
11343;BME280;5726;42.160;24.746;2023-03-14T02:30:11;99893.66;;;6.90;55.01
11343;BME280;5726;42.160;24.746;2023-03-14T02:32:40;99897.25;;;6.74;54.62
11343;BME280;5726;42.160;24.746;2023-03-14T02:35:09;99892.09;;;6.63;55.10
11343;BME280;5726;42.160;24.746;2023-03-14T02:37:41;99900.13;;;6.67;55.90
11343;BME280;5726;42.160;24.746;2023-03-14T02:40:08;99889.16;;;6.95;54.74
11343;BME280;5726;42.160;24.746;2023-03-14T02:42:34;99888.38;;;7.00;54.02
11343;BME280;5726;42.160;24.746;2023-03-14T02:47:54;99893.41;;;7.32;52.35
11343;BME280;5726;42.160;24.746;2023-03-14T02:50:25;99891.56;;;6.97;52.77
11343;BME280;5726;42.160;24.746;2023-03-14T02:52:52;99903.31;;;7.01;52.50
11343;BME280;5726;42.160;24.746;2023-03-14T02:55:24;99901.03;;;7.14;51.88
11343;BME280;5726;42.160;24.746;2023-03-14T02:57:51;99904.53;;;7.19;52.22
11343;BME280;5726;42.160;24.746;2023-03-14T03:00:17;99899.25;;;7.29;52.00
11343;BME280;5726;42.160;24.746;2023-03-14T03:02:43;99901.38;;;7.27;52.14
11343;BME280;5726;42.160;24.746;2023-03-14T03:05:08;99901.09;;;7.24;51.72
11343;BME280;5726;42.160;24.746;2023-03-14T03:07:33;99902.47;;;7.31;51.94
11343;BME280;5726;42.160;24.746;2023-03-14T03:09:59;99911.53;;;7.30;53.03
11343;BME280;5726;42.160;24.746;2023-03-14T03:12:25;99914.25;;;7.40;52.35
11343;BME280;5726;42.160;24.746;2023-03-14T03:14:50;99909.72;;;7.36;52.05
11343;BME280;5726;42.160;24.746;2023-03-14T03:17:16;99911.78;;;7.29;52.09
11343;BME280;5726;42.160;24.746;2023-03-14T03:19:41;99915.19;;;7.19;51.71
11343;BME280;5726;42.160;24.746;2023-03-14T03:22:07;99905.06;;;7.16;51.80
11343;BME280;5726;42.160;24.746;2023-03-14T03:24:32;99907.91;;;7.10;51.74
11343;BME280;5726;42.160;24.746;2023-03-14T03:26:58;99905.19;;;7.00;52.39
11343;BME280;5726;42.160;24.746;2023-03-14T03:29:23;99909.03;;;7.19;51.76
11343;BME280;5726;42.160;24.746;2023-03-14T03:31:49;99900.50;;;6.81;53.32
11343;BME280;5726;42.160;24.746;2023-03-14T03:34:14;99905.66;;;6.92;52.89
11343;BME280;5726;42.160;24.746;2023-03-14T03:36:40;99901.44;;;7.01;52.47
11343;BME280;5726;42.160;24.746;2023-03-14T03:39:05;99895.50;;;6.58;54.02
11343;BME280;5726;42.160;24.746;2023-03-14T03:41:31;99898.75;;;6.34;55.24
11343;BME280;5726;42.160;24.746;2023-03-14T03:43:56;99903.72;;;6.25;55.93
11343;BME280;5726;42.160;24.746;2023-03-14T03:46:22;99903.38;;;6.17;56.14
11343;BME280;5726;42.160;24.746;2023-03-14T03:48:47;99901.66;;;6.32;56.12
11343;BME280;5726;42.160;24.746;2023-03-14T03:51:15;99904.44;;;6.16;56.50
11343;BME280;5726;42.160;24.746;2023-03-14T03:53:42;99899.28;;;6.36;56.94
11343;BME280;5726;42.160;24.746;2023-03-14T03:56:08;99896.84;;;6.56;55.95
11343;BME280;5726;42.160;24.746;2023-03-14T03:58:34;99901.53;;;6.75;56.70
11343;BME280;5726;42.160;24.746;2023-03-14T04:00:59;99889.78;;;6.76;55.33
11343;BME280;5726;42.160;24.746;2023-03-14T04:03:25;99892.78;;;6.79;54.55
11343;BME280;5726;42.160;24.746;2023-03-14T04:06:02;99877.06;;;6.83;54.28
11343;BME280;5726;42.160;24.746;2023-03-14T04:08:28;99884.06;;;6.89;54.24
11343;BME280;5726;42.160;24.746;2023-03-14T04:10:59;99880.84;;;6.87;54.03
11343;BME280;5726;42.160;24.746;2023-03-14T04:13:25;99871.00;;;6.92;54.06
11343;BME280;5726;42.160;24.746;2023-03-14T04:15:52;99876.19;;;7.09;53.44
11343;BME280;5726;42.160;24.746;2023-03-14T04:18:18;99874.78;;;7.01;53.43
11343;BME280;5726;42.160;24.746;2023-03-14T04:20:43;99877.72;;;7.00;53.53
11343;BME280;5726;42.160;24.746;2023-03-14T04:23:09;99876.44;;;7.07;53.80
11343;BME280;5726;42.160;24.746;2023-03-14T04:25:34;99877.16;;;6.93;54.12
11343;BME280;5726;42.160;24.746;2023-03-14T04:28:00;99871.09;;;7.07;53.74
11343;BME280;5726;42.160;24.746;2023-03-14T04:30:26;99866.44;;;6.88;54.45
11343;BME280;5726;42.160;24.746;2023-03-14T04:32:51;99860.66;;;6.96;54.32
11343;BME280;5726;42.160;24.746;2023-03-14T04:35:17;99866.53;;;7.03;54.28
11343;BME280;5726;42.160;24.746;2023-03-14T04:37:42;99862.81;;;7.04;54.05
11343;BME280;5726;42.160;24.746;2023-03-14T04:40:10;99864.91;;;6.97;54.81
11343;BME280;5726;42.160;24.746;2023-03-14T04:42:36;99864.78;;;7.18;54.56
11343;BME280;5726;42.160;24.746;2023-03-14T04:45:02;99855.84;;;7.44;54.17
11343;BME280;5726;42.160;24.746;2023-03-14T04:47:28;99855.78;;;7.95;52.11
11343;BME280;5726;42.160;24.746;2023-03-14T04:49:53;99857.19;;;8.17;51.83
11343;BME280;5726;42.160;24.746;2023-03-14T04:52:19;99861.81;;;8.56;51.01
11343;BME280;5726;42.160;24.746;2023-03-14T04:54:44;99866.34;;;8.95;48.89
11343;BME280;5726;42.160;24.746;2023-03-14T04:57:10;99862.53;;;9.21;48.41
11343;BME280;5726;42.160;24.746;2023-03-14T04:59:35;99875.84;;;9.55;47.28
11343;BME280;5726;42.160;24.746;2023-03-14T05:02:00;99874.34;;;9.93;46.11
11343;BME280;5726;42.160;24.746;2023-03-14T05:04:26;99879.63;;;10.12;45.34
11343;BME280;5726;42.160;24.746;2023-03-14T05:06:51;99881.69;;;9.62;45.03
11343;BME280;5726;42.160;24.746;2023-03-14T05:09:17;99890.13;;;8.92;46.44
11343;BME280;5726;42.160;24.746;2023-03-14T05:11:42;99889.06;;;8.88;47.03
11343;BME280;5726;42.160;24.746;2023-03-14T05:14:08;99885.25;;;9.28;45.83
11343;BME280;5726;42.160;24.746;2023-03-14T05:16:33;99894.41;;;8.78;47.05
11343;BME280;5726;42.160;24.746;2023-03-14T05:18:58;99899.19;;;9.25;46.34
11343;BME280;5726;42.160;24.746;2023-03-14T05:21:24;99886.34;;;9.32;45.50
11343;BME280;5726;42.160;24.746;2023-03-14T05:23:50;99894.09;;;9.24;45.14
11343;BME280;5726;42.160;24.746;2023-03-14T05:26:15;99898.94;;;8.67;46.28
11343;BME280;5726;42.160;24.746;2023-03-14T05:28:42;99900.19;;;8.15;47.93
11343;BME280;5726;42.160;24.746;2023-03-14T05:31:08;99901.63;;;7.77;48.97
11343;BME280;5726;42.160;24.746;2023-03-14T05:33:33;99905.53;;;8.15;48.46
11343;BME280;5726;42.160;24.746;2023-03-14T05:35:59;99906.66;;;8.29;47.84
11343;BME280;5726;42.160;24.746;2023-03-14T05:38:24;99902.25;;;7.94;48.63
11343;BME280;5726;42.160;24.746;2023-03-14T05:40:50;99908.31;;;7.79;49.75
11343;BME280;5726;42.160;24.746;2023-03-14T05:43:15;99897.94;;;7.88;49.62
11343;BME280;5726;42.160;24.746;2023-03-14T05:45:41;99895.25;;;7.83;49.29
11343;BME280;5726;42.160;24.746;2023-03-14T05:48:07;99891.53;;;7.84;54.16
11343;BME280;5726;42.160;24.746;2023-03-14T05:50:32;99901.25;;;9.53;70.07
11343;BME280;5726;42.160;24.746;2023-03-14T05:52:58;99907.47;;;10.11;49.52
11343;BME280;5726;42.160;24.746;2023-03-14T05:55:23;99891.63;;;9.52;50.07
11343;BME280;5726;42.160;24.746;2023-03-14T05:57:49;99906.03;;;9.71;48.99
11343;BME280;5726;42.160;24.746;2023-03-14T06:00:14;99892.13;;;9.64;47.77
11343;BME280;5726;42.160;24.746;2023-03-14T06:02:40;99893.25;;;9.43;48.69
11343;BME280;5726;42.160;24.746;2023-03-14T06:05:06;99901.97;;;9.78;47.17
11343;BME280;5726;42.160;24.746;2023-03-14T06:07:32;99897.09;;;10.43;45.94
11343;BME280;5726;42.160;24.746;2023-03-14T06:09:57;99898.38;;;10.89;44.14
11343;BME280;5726;42.160;24.746;2023-03-14T06:12:24;99893.75;;;10.99;44.09
11343;BME280;5726;42.160;24.746;2023-03-14T06:14:49;99902.13;;;10.93;43.35
11343;BME280;5726;42.160;24.746;2023-03-14T06:17:15;99880.41;;;11.17;42.81
11343;BME280;5726;42.160;24.746;2023-03-14T06:19:40;99882.78;;;11.52;41.82
11343;BME280;5726;42.160;24.746;2023-03-14T06:22:06;99878.66;;;11.59;41.78
11343;BME280;5726;42.160;24.746;2023-03-14T06:24:31;99881.63;;;11.58;41.14
11343;BME280;5726;42.160;24.746;2023-03-14T06:26:56;99875.56;;;11.19;42.36
11343;BME280;5726;42.160;24.746;2023-03-14T06:29:22;99878.69;;;10.70;44.00
11343;BME280;5726;42.160;24.746;2023-03-14T06:31:47;99882.06;;;10.85;43.97
11343;BME280;5726;42.160;24.746;2023-03-14T06:34:13;99868.03;;;11.21;43.64
11343;BME280;5726;42.160;24.746;2023-03-14T06:36:39;99863.91;;;11.57;41.60
11343;BME280;5726;42.160;24.746;2023-03-14T06:39:05;99875.84;;;11.93;41.54
11343;BME280;5726;42.160;24.746;2023-03-14T06:41:31;99873.38;;;11.96;40.65
11343;BME280;5726;42.160;24.746;2023-03-14T06:43:57;99878.63;;;12.24;40.57
11343;BME280;5726;42.160;24.746;2023-03-14T06:46:23;99882.50;;;11.53;41.87
11343;BME280;5726;42.160;24.746;2023-03-14T06:48:48;99884.19;;;11.44;42.54
11343;BME280;5726;42.160;24.746;2023-03-14T06:51:14;99879.69;;;11.87;41.11
11343;BME280;5726;42.160;24.746;2023-03-14T06:53:39;99878.19;;;12.17;39.87
11343;BME280;5726;42.160;24.746;2023-03-14T06:56:05;99876.25;;;12.41;40.08
11343;BME280;5726;42.160;24.746;2023-03-14T06:58:31;99869.31;;;12.53;39.23
11343;BME280;5726;42.160;24.746;2023-03-14T07:00:56;99869.09;;;12.68;38.91
11343;BME280;5726;42.160;24.746;2023-03-14T07:03:22;99863.50;;;12.46;39.47
11343;BME280;5726;42.160;24.746;2023-03-14T07:05:48;99861.31;;;12.67;38.96
11343;BME280;5726;42.160;24.746;2023-03-14T07:08:13;99861.22;;;12.72;39.41
11343;BME280;5726;42.160;24.746;2023-03-14T07:10:39;99857.72;;;12.89;39.45
11343;BME280;5726;42.160;24.746;2023-03-14T07:13:04;99852.00;;;13.09;38.01
11343;BME280;5726;42.160;24.746;2023-03-14T07:15:30;99843.69;;;12.74;39.35
11343;BME280;5726;42.160;24.746;2023-03-14T07:17:55;99846.31;;;12.79;39.10
11343;BME280;5726;42.160;24.746;2023-03-14T07:20:21;99837.56;;;12.37;39.17
11343;BME280;5726;42.160;24.746;2023-03-14T07:22:48;99836.66;;;12.60;39.04
11343;BME280;5726;42.160;24.746;2023-03-14T07:25:15;99835.59;;;12.92;38.87
11343;BME280;5726;42.160;24.746;2023-03-14T07:27:43;99838.63;;;13.04;37.45
11343;BME280;5726;42.160;24.746;2023-03-14T07:30:09;99832.91;;;13.38;37.36
11343;BME280;5726;42.160;24.746;2023-03-14T07:32:35;99827.00;;;13.49;36.72
11343;BME280;5726;42.160;24.746;2023-03-14T07:35:00;99830.88;;;13.43;38.58
11343;BME280;5726;42.160;24.746;2023-03-14T07:37:26;99824.31;;;13.62;36.80
11343;BME280;5726;42.160;24.746;2023-03-14T07:39:51;99819.59;;;13.01;38.15
11343;BME280;5726;42.160;24.746;2023-03-14T07:42:16;99816.72;;;13.24;37.19
11343;BME280;5726;42.160;24.746;2023-03-14T07:44:42;99826.50;;;13.47;36.82
11343;BME280;5726;42.160;24.746;2023-03-14T07:47:07;99821.91;;;13.34;36.82
11343;BME280;5726;42.160;24.746;2023-03-14T07:49:33;99814.31;;;13.09;36.91
11343;BME280;5726;42.160;24.746;2023-03-14T07:51:58;99803.94;;;13.16;36.52
11343;BME280;5726;42.160;24.746;2023-03-14T07:54:24;99808.38;;;13.39;36.13
11343;BME280;5726;42.160;24.746;2023-03-14T07:56:50;99815.63;;;13.52;35.78
11343;BME280;5726;42.160;24.746;2023-03-14T07:59:17;99814.94;;;13.46;35.67
11343;BME280;5726;42.160;24.746;2023-03-14T08:01:42;99816.22;;;13.22;36.46
11343;BME280;5726;42.160;24.746;2023-03-14T08:04:08;99807.59;;;12.93;36.68
11343;BME280;5726;42.160;24.746;2023-03-14T08:06:35;99816.81;;;13.19;36.40
11343;BME280;5726;42.160;24.746;2023-03-14T08:09:01;99811.72;;;13.58;36.11
11343;BME280;5726;42.160;24.746;2023-03-14T08:11:26;99800.03;;;13.76;35.12
11343;BME280;5726;42.160;24.746;2023-03-14T08:13:52;99797.88;;;13.64;35.05
11343;BME280;5726;42.160;24.746;2023-03-14T08:16:18;99800.28;;;13.66;34.96
11343;BME280;5726;42.160;24.746;2023-03-14T08:18:44;99796.38;;;13.18;35.80
11343;BME280;5726;42.160;24.746;2023-03-14T08:21:10;99803.84;;;13.75;34.99
11343;BME280;5726;42.160;24.746;2023-03-14T08:23:35;99800.97;;;13.58;34.89
11343;BME280;5726;42.160;24.746;2023-03-14T08:26:01;99804.78;;;13.57;35.06
11343;BME280;5726;42.160;24.746;2023-03-14T08:28:27;99790.38;;;13.75;34.86
11343;BME280;5726;42.160;24.746;2023-03-14T08:30:56;99789.56;;;13.74;34.55
11343;BME280;5726;42.160;24.746;2023-03-14T08:33:23;99783.19;;;13.70;35.24
11343;BME280;5726;42.160;24.746;2023-03-14T08:35:52;99788.44;;;13.88;35.13
11343;BME280;5726;42.160;24.746;2023-03-14T08:38:17;99777.81;;;14.40;33.71
11343;BME280;5726;42.160;24.746;2023-03-14T08:40:43;99775.19;;;14.49;33.37
11343;BME280;5726;42.160;24.746;2023-03-14T08:43:08;99769.50;;;14.81;33.29
11343;BME280;5726;42.160;24.746;2023-03-14T08:45:34;99768.56;;;15.15;32.48
11343;BME280;5726;42.160;24.746;2023-03-14T08:47:59;99767.72;;;15.36;32.31
11343;BME280;5726;42.160;24.746;2023-03-14T08:50:24;99755.81;;;15.37;31.68
11343;BME280;5726;42.160;24.746;2023-03-14T08:52:50;99749.22;;;15.22;32.41
11343;BME280;5726;42.160;24.746;2023-03-14T08:55:16;99748.19;;;15.48;31.80
11343;BME280;5726;42.160;24.746;2023-03-14T08:57:41;99748.81;;;15.06;31.81
11343;BME280;5726;42.160;24.746;2023-03-14T09:00:08;99731.72;;;14.81;32.26
11343;BME280;5726;42.160;24.746;2023-03-14T09:02:40;99731.06;;;15.14;31.76
11343;BME280;5726;42.160;24.746;2023-03-14T09:05:06;99728.41;;;14.83;32.41
11343;BME280;5726;42.160;24.746;2023-03-14T09:07:32;99712.31;;;15.09;31.76
11343;BME280;5726;42.160;24.746;2023-03-14T09:09:57;99714.50;;;15.37;31.67
11343;BME280;5726;42.160;24.746;2023-03-14T09:12:22;99700.22;;;15.53;31.99
11343;BME280;5726;42.160;24.746;2023-03-14T09:14:48;99706.75;;;15.61;31.49
11343;BME280;5726;42.160;24.746;2023-03-14T09:17:13;99700.25;;;15.78;31.83
11343;BME280;5726;42.160;24.746;2023-03-14T09:19:39;99700.09;;;15.92;31.04
11343;BME280;5726;42.160;24.746;2023-03-14T09:22:04;99698.75;;;15.39;31.60
11343;BME280;5726;42.160;24.746;2023-03-14T09:24:30;99692.63;;;15.08;32.43
11343;BME280;5726;42.160;24.746;2023-03-14T09:26:55;99684.59;;;14.86;32.62
11343;BME280;5726;42.160;24.746;2023-03-14T09:29:24;99673.44;;;14.80;33.42
11343;BME280;5726;42.160;24.746;2023-03-14T09:31:49;99668.66;;;14.77;32.79
11343;BME280;5726;42.160;24.746;2023-03-14T09:34:15;99671.28;;;14.98;32.15
11343;BME280;5726;42.160;24.746;2023-03-14T09:36:40;99660.13;;;14.91;32.79
11343;BME280;5726;42.160;24.746;2023-03-14T09:39:06;99659.09;;;15.09;32.57
11343;BME280;5726;42.160;24.746;2023-03-14T09:41:34;99655.75;;;14.65;32.79
11343;BME280;5726;42.160;24.746;2023-03-14T09:44:09;99648.50;;;14.44;33.36
11343;BME280;5726;42.160;24.746;2023-03-14T09:46:38;99650.91;;;14.84;33.31
11343;BME280;5726;42.160;24.746;2023-03-14T09:49:14;99648.94;;;15.15;33.73
11343;BME280;5726;42.160;24.746;2023-03-14T09:51:45;99646.59;;;15.30;32.63
11343;BME280;5726;42.160;24.746;2023-03-14T09:54:37;99648.34;;;15.26;33.18
11343;BME280;5726;42.160;24.746;2023-03-14T09:57:12;99646.03;;;15.03;33.96
11343;BME280;5726;42.160;24.746;2023-03-14T09:59:39;99645.25;;;15.02;33.66
11343;BME280;5726;42.160;24.746;2023-03-14T10:02:33;99640.19;;;14.62;32.26
11343;BME280;5726;42.160;24.746;2023-03-14T10:04:59;99643.56;;;14.37;32.60
11343;BME280;5726;42.160;24.746;2023-03-14T10:07:30;99629.59;;;14.35;32.34
11343;BME280;5726;42.160;24.746;2023-03-14T10:09:56;99618.59;;;14.32;32.26
11343;BME280;5726;42.160;24.746;2023-03-14T10:12:33;99620.94;;;14.55;32.67
11343;BME280;5726;42.160;24.746;2023-03-14T10:15:09;99612.75;;;14.69;31.83
11343;BME280;5726;42.160;24.746;2023-03-14T10:17:46;99605.44;;;14.69;31.74
11343;BME280;5726;42.160;24.746;2023-03-14T10:23:24;99588.88;;;14.54;31.37
11343;BME280;5726;42.160;24.746;2023-03-14T10:29:00;99581.97;;;14.70;32.02
11343;BME280;5726;42.160;24.746;2023-03-14T10:31:20;99574.75;;;14.57;32.53
11343;BME280;5726;42.160;24.746;2023-03-14T10:34:04;99574.97;;;14.69;32.24
11343;BME280;5726;42.160;24.746;2023-03-14T10:36:32;99569.09;;;14.75;32.14
11343;BME280;5726;42.160;24.746;2023-03-14T10:41:48;99556.97;;;14.47;32.35
11343;BME280;5726;42.160;24.746;2023-03-14T10:44:19;99543.22;;;14.82;32.24
11343;BME280;5726;42.160;24.746;2023-03-14T10:46:45;99536.59;;;14.80;32.47
11343;BME280;5726;42.160;24.746;2023-03-14T10:49:27;99525.63;;;14.85;32.63
11343;BME280;5726;42.160;24.746;2023-03-14T10:51:53;99528.47;;;14.80;32.12
11343;BME280;5726;42.160;24.746;2023-03-14T10:54:21;99526.53;;;14.64;32.47
11343;BME280;5726;42.160;24.746;2023-03-14T10:56:57;99516.81;;;14.54;32.69
11343;BME280;5726;42.160;24.746;2023-03-14T10:59:23;99507.66;;;14.81;32.41
11343;BME280;5726;42.160;24.746;2023-03-14T11:07:43;99486.13;;;15.31;31.64
11343;BME280;5726;42.160;24.746;2023-03-14T11:10:26;99485.63;;;15.29;31.79
11343;BME280;5726;42.160;24.746;2023-03-14T11:15:51;99472.09;;;15.29;32.03
11343;BME280;5726;42.160;24.746;2023-03-14T11:21:13;99449.84;;;15.15;31.61
11343;BME280;5726;42.160;24.746;2023-03-14T11:26:16;99435.75;;;15.27;31.46
11343;BME280;5726;42.160;24.746;2023-03-14T11:28:49;99427.34;;;14.86;32.02
11343;BME280;5726;42.160;24.746;2023-03-14T11:31:16;99414.13;;;14.93;31.94
11343;BME280;5726;42.160;24.746;2023-03-14T11:33:57;99409.53;;;15.10;31.73
11343;BME280;5726;42.160;24.746;2023-03-14T11:36:41;99404.44;;;15.26;31.75
11343;BME280;5726;42.160;24.746;2023-03-14T11:39:17;99394.91;;;14.94;32.01
11343;BME280;5726;42.160;24.746;2023-03-14T11:41:46;99385.88;;;14.82;31.93
11343;BME280;5726;42.160;24.746;2023-03-14T11:49:48;99363.66;;;14.85;32.39
11343;BME280;5726;42.160;24.746;2023-03-14T11:52:30;99354.28;;;14.91;31.91
11343;BME280;5726;42.160;24.746;2023-03-14T11:55:19;99358.69;;;15.12;32.27
11343;BME280;5726;42.160;24.746;2023-03-14T11:57:47;99342.19;;;15.05;32.23
11343;BME280;5726;42.160;24.746;2023-03-14T12:00:21;99344.41;;;15.03;32.74
11343;BME280;5726;42.160;24.746;2023-03-14T12:05:39;99322.00;;;15.11;33.09
11343;BME280;5726;42.160;24.746;2023-03-14T12:11:04;99306.72;;;15.15;33.25
11343;BME280;5726;42.160;24.746;2023-03-14T12:13:33;99290.53;;;15.24;32.91
11343;BME280;5726;42.160;24.746;2023-03-14T12:16:05;99282.47;;;15.44;32.93
11343;BME280;5726;42.160;24.746;2023-03-14T12:18:36;99283.22;;;15.16;33.67
11343;BME280;5726;42.160;24.746;2023-03-14T12:21:09;99278.16;;;15.14;33.56
11343;BME280;5726;42.160;24.746;2023-03-14T12:23:48;99275.88;;;15.33;33.06
11343;BME280;5726;42.160;24.746;2023-03-14T12:26:20;99259.09;;;15.11;33.59
11343;BME280;5726;42.160;24.746;2023-03-14T12:29:11;99259.22;;;15.51;33.24
11343;BME280;5726;42.160;24.746;2023-03-14T12:32:29;99249.13;;;15.69;33.44
11343;BME280;5726;42.160;24.746;2023-03-14T12:34:32;99246.69;;;15.47;33.43
11343;BME280;5726;42.160;24.746;2023-03-14T12:37:15;99240.09;;;15.36;33.98
11343;BME280;5726;42.160;24.746;2023-03-14T12:39:58;99252.44;;;15.45;34.14
11343;BME280;5726;42.160;24.746;2023-03-14T12:42:45;99239.34;;;15.27;35.05
11343;BME280;5726;42.160;24.746;2023-03-14T12:45:29;99232.97;;;15.31;35.20
11343;BME280;5726;42.160;24.746;2023-03-14T12:51:04;99237.25;;;15.32;35.17
11343;BME280;5726;42.160;24.746;2023-03-14T12:59:56;99215.31;;;15.63;34.88
11343;BME280;5726;42.160;24.746;2023-03-14T13:02:42;99209.56;;;15.64;34.25
11343;BME280;5726;42.160;24.746;2023-03-14T13:15:41;99196.91;;;16.17;34.36
11343;BME280;5726;42.160;24.746;2023-03-14T13:18:36;99187.06;;;16.33;33.43
11343;BME280;5726;42.160;24.746;2023-03-14T13:21:20;99188.88;;;15.88;33.80
11343;BME280;5726;42.160;24.746;2023-03-14T13:24:02;99177.59;;;15.86;33.78
11343;BME280;5726;42.160;24.746;2023-03-14T13:26:40;99182.53;;;15.64;34.14
11343;BME280;5726;42.160;24.746;2023-03-14T13:29:20;99182.94;;;15.75;34.13
11343;BME280;5726;42.160;24.746;2023-03-14T13:31:48;99169.63;;;15.70;34.38
11343;BME280;5726;42.160;24.746;2023-03-14T13:34:14;99171.25;;;15.42;34.45
11343;BME280;5726;42.160;24.746;2023-03-14T13:36:40;99160.25;;;15.47;34.33
11343;BME280;5726;42.160;24.746;2023-03-14T13:39:19;99153.03;;;15.59;34.04
11343;BME280;5726;42.160;24.746;2023-03-14T13:41:47;99145.09;;;15.75;33.71
11343;BME280;5726;42.160;24.746;2023-03-14T13:44:17;99137.38;;;15.65;34.02
11343;BME280;5726;42.160;24.746;2023-03-14T13:46:44;99130.47;;;15.76;34.21
11343;BME280;5726;42.160;24.746;2023-03-14T13:49:13;99125.84;;;15.56;34.50
11343;BME280;5726;42.160;24.746;2023-03-14T13:51:41;99126.78;;;15.60;34.39
11343;BME280;5726;42.160;24.746;2023-03-14T13:54:15;99121.22;;;15.77;33.69
11343;BME280;5726;42.160;24.746;2023-03-14T13:56:41;99115.19;;;15.59;34.33
11343;BME280;5726;42.160;24.746;2023-03-14T13:59:24;99102.28;;;15.77;33.56
11343;BME280;5726;42.160;24.746;2023-03-14T14:01:50;99100.06;;;15.78;34.11
11343;BME280;5726;42.160;24.746;2023-03-14T14:04:18;99096.78;;;15.73;34.10
11343;BME280;5726;42.160;24.746;2023-03-14T14:06:50;99084.00;;;15.94;33.76
11343;BME280;5726;42.160;24.746;2023-03-14T14:09:28;99077.97;;;15.77;34.38
11343;BME280;5726;42.160;24.746;2023-03-14T14:11:57;99067.75;;;15.82;34.04